sensor_id;sensor_type;location;lat;lon;timestamp;P1;durP1;ratioP1;P2;durP2;ratioP2
38113;SDS011;23926;53.222;6.354;2024-02-16T00:02:03;143.30;;;134.60;;
38113;SDS011;23926;53.222;6.354;2024-02-16T00:04:29;145.93;;;136.65;;
38113;SDS011;23926;53.222;6.354;2024-02-16T00:06:56;146.95;;;137.35;;
38113;SDS011;23926;53.222;6.354;2024-02-16T00:09:21;142.27;;;133.43;;
38113;SDS011;23926;53.222;6.354;2024-02-16T00:11:47;137.93;;;129.73;;
38113;SDS011;23926;53.222;6.354;2024-02-16T00:14:13;141.82;;;132.48;;
38113;SDS011;23926;53.222;6.354;2024-02-16T00:16:39;137.93;;;129.90;;
38113;SDS011;23926;53.222;6.354;2024-02-16T00:19:04;131.45;;;123.90;;
38113;SDS011;23926;53.222;6.354;2024-02-16T00:21:29;142.57;;;134.48;;
38113;SDS011;23926;53.222;6.354;2024-02-16T00:23:55;133.32;;;125.60;;
38113;SDS011;23926;53.222;6.354;2024-02-16T00:26:21;126.38;;;119.20;;
38113;SDS011;23926;53.222;6.354;2024-02-16T00:28:48;133.52;;;125.65;;
38113;SDS011;23926;53.222;6.354;2024-02-16T00:31:13;145.77;;;137.27;;
38113;SDS011;23926;53.222;6.354;2024-02-16T00:33:39;139.20;;;130.48;;
38113;SDS011;23926;53.222;6.354;2024-02-16T00:36:04;138.30;;;129.93;;
38113;SDS011;23926;53.222;6.354;2024-02-16T00:38:30;141.15;;;132.45;;
38113;SDS011;23926;53.222;6.354;2024-02-16T00:40:55;146.77;;;137.82;;
38113;SDS011;23926;53.222;6.354;2024-02-16T00:43:20;149.95;;;140.63;;
38113;SDS011;23926;53.222;6.354;2024-02-16T00:45:46;144.27;;;135.80;;
38113;SDS011;23926;53.222;6.354;2024-02-16T00:48:12;140.40;;;132.05;;
38113;SDS011;23926;53.222;6.354;2024-02-16T00:50:37;144.48;;;136.05;;
38113;SDS011;23926;53.222;6.354;2024-02-16T00:53:03;139.57;;;131.50;;
38113;SDS011;23926;53.222;6.354;2024-02-16T00:55:29;137.32;;;129.55;;
38113;SDS011;23926;53.222;6.354;2024-02-16T00:57:55;148.98;;;140.25;;
38113;SDS011;23926;53.222;6.354;2024-02-16T01:00:20;140.43;;;132.18;;
38113;SDS011;23926;53.222;6.354;2024-02-16T01:02:48;130.05;;;122.75;;
38113;SDS011;23926;53.222;6.354;2024-02-16T01:05:14;117.97;;;111.63;;
38113;SDS011;23926;53.222;6.354;2024-02-16T01:07:42;134.90;;;127.05;;
38113;SDS011;23926;53.222;6.354;2024-02-16T01:10:08;120.43;;;113.30;;
38113;SDS011;23926;53.222;6.354;2024-02-16T01:12:33;144.07;;;135.85;;
38113;SDS011;23926;53.222;6.354;2024-02-16T01:14:58;131.90;;;124.20;;
38113;SDS011;23926;53.222;6.354;2024-02-16T01:17:24;125.28;;;118.35;;
38113;SDS011;23926;53.222;6.354;2024-02-16T01:19:50;135.25;;;127.32;;
38113;SDS011;23926;53.222;6.354;2024-02-16T01:22:15;136.55;;;128.70;;
38113;SDS011;23926;53.222;6.354;2024-02-16T01:24:41;147.85;;;139.30;;
38113;SDS011;23926;53.222;6.354;2024-02-16T01:27:06;131.88;;;124.30;;
38113;SDS011;23926;53.222;6.354;2024-02-16T01:29:31;136.43;;;128.43;;
38113;SDS011;23926;53.222;6.354;2024-02-16T01:31:57;131.07;;;123.57;;
38113;SDS011;23926;53.222;6.354;2024-02-16T01:34:23;150.90;;;141.93;;
38113;SDS011;23926;53.222;6.354;2024-02-16T01:36:48;147.02;;;138.23;;
38113;SDS011;23926;53.222;6.354;2024-02-16T01:39:14;144.98;;;136.70;;
38113;SDS011;23926;53.222;6.354;2024-02-16T01:41:39;150.80;;;141.93;;
38113;SDS011;23926;53.222;6.354;2024-02-16T01:44:05;166.13;;;156.23;;
38113;SDS011;23926;53.222;6.354;2024-02-16T01:46:30;157.82;;;148.27;;
38113;SDS011;23926;53.222;6.354;2024-02-16T01:48:56;158.30;;;149.02;;
38113;SDS011;23926;53.222;6.354;2024-02-16T01:51:22;166.10;;;155.63;;
38113;SDS011;23926;53.222;6.354;2024-02-16T01:53:50;145.07;;;136.52;;
38113;SDS011;23926;53.222;6.354;2024-02-16T01:56:17;157.65;;;148.43;;
38113;SDS011;23926;53.222;6.354;2024-02-16T01:58:45;160.88;;;151.30;;
38113;SDS011;23926;53.222;6.354;2024-02-16T02:01:11;162.80;;;152.98;;
38113;SDS011;23926;53.222;6.354;2024-02-16T02:03:36;201.13;;;189.23;;
38113;SDS011;23926;53.222;6.354;2024-02-16T02:06:02;189.45;;;178.55;;
38113;SDS011;23926;53.222;6.354;2024-02-16T02:08:28;177.20;;;166.93;;
38113;SDS011;23926;53.222;6.354;2024-02-16T02:10:53;155.57;;;146.93;;
38113;SDS011;23926;53.222;6.354;2024-02-16T02:13:18;170.23;;;159.32;;
38113;SDS011;23926;53.222;6.354;2024-02-16T02:15:46;157.57;;;148.60;;
38113;SDS011;23926;53.222;6.354;2024-02-16T02:18:12;159.55;;;150.55;;
38113;SDS011;23926;53.222;6.354;2024-02-16T02:20:37;154.27;;;146.00;;
38113;SDS011;23926;53.222;6.354;2024-02-16T02:23:02;160.65;;;151.40;;
38113;SDS011;23926;53.222;6.354;2024-02-16T02:25:29;161.65;;;152.30;;
38113;SDS011;23926;53.222;6.354;2024-02-16T02:27:54;141.57;;;134.13;;
38113;SDS011;23926;53.222;6.354;2024-02-16T02:30:20;173.68;;;163.32;;
38113;SDS011;23926;53.222;6.354;2024-02-16T02:32:46;171.25;;;160.80;;
38113;SDS011;23926;53.222;6.354;2024-02-16T02:35:14;174.20;;;163.30;;
38113;SDS011;23926;53.222;6.354;2024-02-16T02:37:41;177.27;;;166.45;;
38113;SDS011;23926;53.222;6.354;2024-02-16T02:40:07;166.80;;;156.75;;
38113;SDS011;23926;53.222;6.354;2024-02-16T02:42:33;168.73;;;158.60;;
38113;SDS011;23926;53.222;6.354;2024-02-16T02:44:59;166.15;;;156.15;;
38113;SDS011;23926;53.222;6.354;2024-02-16T02:47:25;173.70;;;162.93;;
38113;SDS011;23926;53.222;6.354;2024-02-16T02:49:50;142.70;;;134.43;;
38113;SDS011;23926;53.222;6.354;2024-02-16T02:52:15;155.07;;;145.82;;
38113;SDS011;23926;53.222;6.354;2024-02-16T02:54:41;152.85;;;144.15;;
38113;SDS011;23926;53.222;6.354;2024-02-16T02:57:07;154.98;;;146.20;;
38113;SDS011;23926;53.222;6.354;2024-02-16T02:59:32;154.30;;;145.55;;
38113;SDS011;23926;53.222;6.354;2024-02-16T03:01:57;145.25;;;137.23;;
38113;SDS011;23926;53.222;6.354;2024-02-16T03:04:23;161.23;;;152.07;;
38113;SDS011;23926;53.222;6.354;2024-02-16T03:06:51;169.13;;;159.68;;
38113;SDS011;23926;53.222;6.354;2024-02-16T03:09:17;144.20;;;135.90;;
38113;SDS011;23926;53.222;6.354;2024-02-16T03:11:42;148.98;;;140.75;;
38113;SDS011;23926;53.222;6.354;2024-02-16T03:14:07;160.77;;;151.82;;
38113;SDS011;23926;53.222;6.354;2024-02-16T03:16:33;139.80;;;131.77;;
38113;SDS011;23926;53.222;6.354;2024-02-16T03:18:58;161.00;;;152.23;;
38113;SDS011;23926;53.222;6.354;2024-02-16T03:21:24;152.10;;;143.40;;
38113;SDS011;23926;53.222;6.354;2024-02-16T03:23:50;156.05;;;146.88;;
38113;SDS011;23926;53.222;6.354;2024-02-16T03:26:16;150.15;;;141.43;;
38113;SDS011;23926;53.222;6.354;2024-02-16T03:28:46;158.00;;;148.48;;
38113;SDS011;23926;53.222;6.354;2024-02-16T03:31:21;150.18;;;141.02;;
38113;SDS011;23926;53.222;6.354;2024-02-16T03:36:14;145.02;;;136.60;;
38113;SDS011;23926;53.222;6.354;2024-02-16T03:38:41;146.80;;;138.50;;
38113;SDS011;23926;53.222;6.354;2024-02-16T03:41:27;150.63;;;142.10;;
38113;SDS011;23926;53.222;6.354;2024-02-16T03:43:53;140.27;;;132.43;;
38113;SDS011;23926;53.222;6.354;2024-02-16T03:46:19;157.65;;;148.32;;
38113;SDS011;23926;53.222;6.354;2024-02-16T03:48:44;160.15;;;150.77;;
38113;SDS011;23926;53.222;6.354;2024-02-16T03:51:10;139.98;;;132.13;;
38113;SDS011;23926;53.222;6.354;2024-02-16T03:53:35;152.63;;;143.98;;
38113;SDS011;23926;53.222;6.354;2024-02-16T03:56:01;153.02;;;144.50;;
38113;SDS011;23926;53.222;6.354;2024-02-16T03:58:26;153.95;;;145.60;;
38113;SDS011;23926;53.222;6.354;2024-02-16T04:00:51;128.63;;;121.78;;
38113;SDS011;23926;53.222;6.354;2024-02-16T04:03:20;150.55;;;141.98;;
38113;SDS011;23926;53.222;6.354;2024-02-16T04:05:45;133.65;;;126.05;;
38113;SDS011;23926;53.222;6.354;2024-02-16T04:08:10;147.05;;;138.35;;
38113;SDS011;23926;53.222;6.354;2024-02-16T04:10:36;160.60;;;151.35;;
38113;SDS011;23926;53.222;6.354;2024-02-16T04:13:02;153.55;;;144.80;;
38113;SDS011;23926;53.222;6.354;2024-02-16T04:15:28;153.57;;;144.95;;
38113;SDS011;23926;53.222;6.354;2024-02-16T04:17:53;151.15;;;143.07;;
38113;SDS011;23926;53.222;6.354;2024-02-16T04:20:19;144.75;;;136.85;;
38113;SDS011;23926;53.222;6.354;2024-02-16T04:22:45;152.50;;;144.00;;
38113;SDS011;23926;53.222;6.354;2024-02-16T04:25:10;148.70;;;140.25;;
38113;SDS011;23926;53.222;6.354;2024-02-16T04:27:36;139.98;;;132.32;;
38113;SDS011;23926;53.222;6.354;2024-02-16T04:30:02;147.10;;;138.57;;
38113;SDS011;23926;53.222;6.354;2024-02-16T04:32:28;141.13;;;133.07;;
38113;SDS011;23926;53.222;6.354;2024-02-16T04:34:54;141.25;;;133.18;;
38113;SDS011;23926;53.222;6.354;2024-02-16T04:37:22;147.73;;;139.18;;
38113;SDS011;23926;53.222;6.354;2024-02-16T04:39:48;132.68;;;125.40;;
38113;SDS011;23926;53.222;6.354;2024-02-16T04:42:14;140.88;;;133.02;;
38113;SDS011;23926;53.222;6.354;2024-02-16T04:44:39;148.80;;;140.30;;
38113;SDS011;23926;53.222;6.354;2024-02-16T04:47:05;141.85;;;133.88;;
38113;SDS011;23926;53.222;6.354;2024-02-16T04:49:30;146.50;;;138.30;;
38113;SDS011;23926;53.222;6.354;2024-02-16T04:51:56;113.47;;;107.38;;
38113;SDS011;23926;53.222;6.354;2024-02-16T04:54:21;138.10;;;130.43;;
38113;SDS011;23926;53.222;6.354;2024-02-16T04:56:47;145.80;;;137.45;;
38113;SDS011;23926;53.222;6.354;2024-02-16T04:59:14;133.52;;;126.07;;
38113;SDS011;23926;53.222;6.354;2024-02-16T05:01:39;149.30;;;140.35;;
38113;SDS011;23926;53.222;6.354;2024-02-16T05:04:05;144.30;;;136.00;;
38113;SDS011;23926;53.222;6.354;2024-02-16T05:06:31;136.73;;;128.98;;
38113;SDS011;23926;53.222;6.354;2024-02-16T05:08:57;145.75;;;137.52;;
38113;SDS011;23926;53.222;6.354;2024-02-16T05:11:23;141.23;;;133.23;;
38113;SDS011;23926;53.222;6.354;2024-02-16T05:13:49;140.90;;;132.80;;
38113;SDS011;23926;53.222;6.354;2024-02-16T05:16:15;139.93;;;132.18;;
38113;SDS011;23926;53.222;6.354;2024-02-16T05:18:41;139.90;;;132.20;;
38113;SDS011;23926;53.222;6.354;2024-02-16T05:21:07;132.80;;;125.65;;
38113;SDS011;23926;53.222;6.354;2024-02-16T05:23:34;137.88;;;130.27;;
38113;SDS011;23926;53.222;6.354;2024-02-16T05:26:00;137.80;;;130.18;;
38113;SDS011;23926;53.222;6.354;2024-02-16T05:28:25;143.93;;;135.88;;
38113;SDS011;23926;53.222;6.354;2024-02-16T05:30:50;146.52;;;138.32;;
38113;SDS011;23926;53.222;6.354;2024-02-16T05:33:16;148.82;;;140.68;;
38113;SDS011;23926;53.222;6.354;2024-02-16T05:35:41;150.30;;;141.45;;
38113;SDS011;23926;53.222;6.354;2024-02-16T05:38:09;144.60;;;136.15;;
38113;SDS011;23926;53.222;6.354;2024-02-16T05:40:49;137.98;;;129.40;;
38113;SDS011;23926;53.222;6.354;2024-02-16T05:43:21;140.95;;;132.70;;
38113;SDS011;23926;53.222;6.354;2024-02-16T05:45:48;145.00;;;136.57;;
38113;SDS011;23926;53.222;6.354;2024-02-16T05:48:14;131.68;;;124.55;;
38113;SDS011;23926;53.222;6.354;2024-02-16T05:50:39;132.70;;;125.45;;
38113;SDS011;23926;53.222;6.354;2024-02-16T05:53:05;131.82;;;124.70;;
38113;SDS011;23926;53.222;6.354;2024-02-16T05:55:31;134.40;;;127.25;;
38113;SDS011;23926;53.222;6.354;2024-02-16T05:57:56;137.90;;;130.45;;
38113;SDS011;23926;53.222;6.354;2024-02-16T06:00:22;139.40;;;131.73;;
38113;SDS011;23926;53.222;6.354;2024-02-16T06:02:47;140.57;;;132.50;;
38113;SDS011;23926;53.222;6.354;2024-02-16T06:05:12;145.95;;;137.85;;
38113;SDS011;23926;53.222;6.354;2024-02-16T06:07:38;142.95;;;135.05;;
38113;SDS011;23926;53.222;6.354;2024-02-16T06:10:04;148.35;;;139.80;;
38113;SDS011;23926;53.222;6.354;2024-02-16T06:12:32;109.53;;;103.65;;
38113;SDS011;23926;53.222;6.354;2024-02-16T06:14:58;141.65;;;133.40;;
38113;SDS011;23926;53.222;6.354;2024-02-16T06:17:24;149.93;;;140.93;;
38113;SDS011;23926;53.222;6.354;2024-02-16T06:19:49;120.88;;;114.07;;
38113;SDS011;23926;53.222;6.354;2024-02-16T06:22:15;128.57;;;121.32;;
38113;SDS011;23926;53.222;6.354;2024-02-16T06:24:41;129.77;;;122.47;;
38113;SDS011;23926;53.222;6.354;2024-02-16T06:27:06;130.20;;;122.47;;
38113;SDS011;23926;53.222;6.354;2024-02-16T06:29:33;134.98;;;127.28;;
38113;SDS011;23926;53.222;6.354;2024-02-16T06:31:59;140.38;;;132.23;;
38113;SDS011;23926;53.222;6.354;2024-02-16T06:34:24;146.77;;;138.18;;
38113;SDS011;23926;53.222;6.354;2024-02-16T06:36:50;140.10;;;131.80;;
38113;SDS011;23926;53.222;6.354;2024-02-16T06:39:15;140.00;;;131.85;;
38113;SDS011;23926;53.222;6.354;2024-02-16T06:41:43;143.50;;;135.23;;
38113;SDS011;23926;53.222;6.354;2024-02-16T06:44:10;133.18;;;125.70;;
38113;SDS011;23926;53.222;6.354;2024-02-16T06:46:36;139.95;;;131.93;;
38113;SDS011;23926;53.222;6.354;2024-02-16T06:49:01;143.63;;;135.27;;
38113;SDS011;23926;53.222;6.354;2024-02-16T06:51:27;145.27;;;136.80;;
38113;SDS011;23926;53.222;6.354;2024-02-16T06:53:53;146.23;;;137.30;;
38113;SDS011;23926;53.222;6.354;2024-02-16T06:56:20;143.02;;;134.68;;
38113;SDS011;23926;53.222;6.354;2024-02-16T06:58:45;147.73;;;139.05;;
38113;SDS011;23926;53.222;6.354;2024-02-16T07:01:14;147.90;;;139.25;;
38113;SDS011;23926;53.222;6.354;2024-02-16T07:03:41;152.27;;;143.35;;
38113;SDS011;23926;53.222;6.354;2024-02-16T07:06:06;128.95;;;121.80;;
38113;SDS011;23926;53.222;6.354;2024-02-16T07:08:37;146.23;;;137.40;;
38113;SDS011;23926;53.222;6.354;2024-02-16T07:11:03;141.48;;;131.85;;
38113;SDS011;23926;53.222;6.354;2024-02-16T07:13:30;134.02;;;125.63;;
38113;SDS011;23926;53.222;6.354;2024-02-16T07:15:56;130.15;;;121.95;;
38113;SDS011;23926;53.222;6.354;2024-02-16T07:18:22;115.82;;;108.55;;
38113;SDS011;23926;53.222;6.354;2024-02-16T07:20:47;116.05;;;108.78;;
38113;SDS011;23926;53.222;6.354;2024-02-16T07:23:13;112.93;;;106.15;;
38113;SDS011;23926;53.222;6.354;2024-02-16T07:25:40;104.65;;;97.88;;
38113;SDS011;23926;53.222;6.354;2024-02-16T07:28:07;133.65;;;125.05;;
38113;SDS011;23926;53.222;6.354;2024-02-16T07:30:33;126.13;;;118.43;;
38113;SDS011;23926;53.222;6.354;2024-02-16T07:32:58;112.55;;;105.85;;
38113;SDS011;23926;53.222;6.354;2024-02-16T07:35:24;114.03;;;107.25;;
38113;SDS011;23926;53.222;6.354;2024-02-16T07:37:52;107.15;;;100.72;;
38113;SDS011;23926;53.222;6.354;2024-02-16T07:40:19;97.60;;;91.57;;
38113;SDS011;23926;53.222;6.354;2024-02-16T07:42:45;89.75;;;84.47;;
38113;SDS011;23926;53.222;6.354;2024-02-16T07:45:11;88.75;;;83.30;;
38113;SDS011;23926;53.222;6.354;2024-02-16T07:47:37;93.35;;;87.60;;
38113;SDS011;23926;53.222;6.354;2024-02-16T07:50:06;85.13;;;79.93;;
38113;SDS011;23926;53.222;6.354;2024-02-16T07:52:31;87.55;;;81.95;;
38113;SDS011;23926;53.222;6.354;2024-02-16T07:54:57;85.53;;;79.68;;
38113;SDS011;23926;53.222;6.354;2024-02-16T07:57:23;78.38;;;73.53;;
38113;SDS011;23926;53.222;6.354;2024-02-16T07:59:48;70.80;;;66.15;;
38113;SDS011;23926;53.222;6.354;2024-02-16T08:02:14;86.90;;;81.32;;
38113;SDS011;23926;53.222;6.354;2024-02-16T08:04:50;71.85;;;67.60;;
38113;SDS011;23926;53.222;6.354;2024-02-16T08:07:16;74.55;;;68.72;;
38113;SDS011;23926;53.222;6.354;2024-02-16T08:09:47;70.30;;;66.10;;
38113;SDS011;23926;53.222;6.354;2024-02-16T08:12:13;68.43;;;64.32;;
38113;SDS011;23926;53.222;6.354;2024-02-16T08:14:42;70.88;;;66.18;;
38113;SDS011;23926;53.222;6.354;2024-02-16T08:17:07;63.83;;;59.72;;
38113;SDS011;23926;53.222;6.354;2024-02-16T08:19:34;37.75;;;35.75;;
38113;SDS011;23926;53.222;6.354;2024-02-16T08:22:03;79.45;;;74.32;;
38113;SDS011;23926;53.222;6.354;2024-02-16T08:24:33;73.20;;;68.88;;
38113;SDS011;23926;53.222;6.354;2024-02-16T08:27:02;75.85;;;71.43;;
38113;SDS011;23926;53.222;6.354;2024-02-16T08:29:29;45.05;;;41.42;;
38113;SDS011;23926;53.222;6.354;2024-02-16T08:31:55;63.10;;;59.45;;
38113;SDS011;23926;53.222;6.354;2024-02-16T08:34:20;67.78;;;63.83;;
38113;SDS011;23926;53.222;6.354;2024-02-16T08:36:46;71.93;;;67.78;;
38113;SDS011;23926;53.222;6.354;2024-02-16T08:39:13;66.70;;;62.75;;
38113;SDS011;23926;53.222;6.354;2024-02-16T08:41:39;85.03;;;80.35;;
38113;SDS011;23926;53.222;6.354;2024-02-16T08:44:05;82.70;;;78.30;;
38113;SDS011;23926;53.222;6.354;2024-02-16T08:46:34;79.80;;;75.35;;
38113;SDS011;23926;53.222;6.354;2024-02-16T08:49:00;43.90;;;41.58;;
38113;SDS011;23926;53.222;6.354;2024-02-16T08:51:25;45.15;;;42.78;;
38113;SDS011;23926;53.222;6.354;2024-02-16T08:53:51;43.50;;;41.13;;
38113;SDS011;23926;53.222;6.354;2024-02-16T08:56:16;34.45;;;32.65;;
38113;SDS011;23926;53.222;6.354;2024-02-16T08:58:42;43.83;;;41.40;;
38113;SDS011;23926;53.222;6.354;2024-02-16T09:01:07;34.45;;;32.58;;
38113;SDS011;23926;53.222;6.354;2024-02-16T09:03:33;49.17;;;46.45;;
38113;SDS011;23926;53.222;6.354;2024-02-16T09:06:02;45.15;;;42.40;;
38113;SDS011;23926;53.222;6.354;2024-02-16T09:08:28;41.38;;;38.72;;
38113;SDS011;23926;53.222;6.354;2024-02-16T09:10:58;42.10;;;39.75;;
38113;SDS011;23926;53.222;6.354;2024-02-16T09:13:33;28.83;;;27.20;;
38113;SDS011;23926;53.222;6.354;2024-02-16T09:16:01;39.47;;;37.30;;
38113;SDS011;23926;53.222;6.354;2024-02-16T09:18:28;33.88;;;31.90;;
38113;SDS011;23926;53.222;6.354;2024-02-16T09:20:53;37.83;;;35.78;;
38113;SDS011;23926;53.222;6.354;2024-02-16T09:23:19;36.72;;;34.78;;
38113;SDS011;23926;53.222;6.354;2024-02-16T09:25:44;34.85;;;32.67;;
38113;SDS011;23926;53.222;6.354;2024-02-16T09:28:11;38.47;;;36.28;;
38113;SDS011;23926;53.222;6.354;2024-02-16T09:30:37;38.80;;;36.70;;
38113;SDS011;23926;53.222;6.354;2024-02-16T09:33:03;34.13;;;32.10;;
38113;SDS011;23926;53.222;6.354;2024-02-16T09:35:28;34.67;;;32.80;;
38113;SDS011;23926;53.222;6.354;2024-02-16T09:37:54;23.70;;;22.40;;
38113;SDS011;23926;53.222;6.354;2024-02-16T09:40:19;25.63;;;23.85;;
38113;SDS011;23926;53.222;6.354;2024-02-16T09:42:47;29.40;;;27.70;;
38113;SDS011;23926;53.222;6.354;2024-02-16T09:45:14;35.15;;;33.38;;
38113;SDS011;23926;53.222;6.354;2024-02-16T09:47:42;26.80;;;25.20;;
38113;SDS011;23926;53.222;6.354;2024-02-16T09:50:07;24.98;;;23.15;;
38113;SDS011;23926;53.222;6.354;2024-02-16T09:52:35;26.13;;;24.40;;
38113;SDS011;23926;53.222;6.354;2024-02-16T09:55:01;28.88;;;27.30;;
38113;SDS011;23926;53.222;6.354;2024-02-16T09:57:26;29.48;;;27.70;;
38113;SDS011;23926;53.222;6.354;2024-02-16T09:59:52;18.30;;;16.90;;
38113;SDS011;23926;53.222;6.354;2024-02-16T10:02:17;21.92;;;20.25;;
38113;SDS011;23926;53.222;6.354;2024-02-16T10:04:43;31.48;;;29.80;;
38113;SDS011;23926;53.222;6.354;2024-02-16T10:07:08;27.17;;;25.60;;
38113;SDS011;23926;53.222;6.354;2024-02-16T10:09:33;19.63;;;18.45;;
38113;SDS011;23926;53.222;6.354;2024-02-16T10:11:59;23.30;;;21.45;;
38113;SDS011;23926;53.222;6.354;2024-02-16T10:14:25;24.60;;;23.30;;
38113;SDS011;23926;53.222;6.354;2024-02-16T10:17:03;24.40;;;22.60;;
38113;SDS011;23926;53.222;6.354;2024-02-16T10:19:31;29.70;;;27.27;;
38113;SDS011;23926;53.222;6.354;2024-02-16T10:22:05;22.48;;;21.08;;
38113;SDS011;23926;53.222;6.354;2024-02-16T10:24:32;19.92;;;18.73;;
38113;SDS011;23926;53.222;6.354;2024-02-16T10:26:57;23.95;;;22.35;;
38113;SDS011;23926;53.222;6.354;2024-02-16T10:29:23;24.92;;;23.23;;
38113;SDS011;23926;53.222;6.354;2024-02-16T10:31:52;20.23;;;18.83;;
38113;SDS011;23926;53.222;6.354;2024-02-16T10:34:17;16.83;;;15.70;;
38113;SDS011;23926;53.222;6.354;2024-02-16T10:36:44;31.98;;;30.15;;
38113;SDS011;23926;53.222;6.354;2024-02-16T10:39:09;30.13;;;28.02;;
38113;SDS011;23926;53.222;6.354;2024-02-16T10:41:45;35.88;;;33.80;;
38113;SDS011;23926;53.222;6.354;2024-02-16T10:44:12;31.98;;;30.23;;
38113;SDS011;23926;53.222;6.354;2024-02-16T10:46:37;39.22;;;36.80;;
38113;SDS011;23926;53.222;6.354;2024-02-16T10:49:03;51.20;;;47.25;;
38113;SDS011;23926;53.222;6.354;2024-02-16T10:51:31;56.95;;;52.72;;
38113;SDS011;23926;53.222;6.354;2024-02-16T10:54:01;46.95;;;43.20;;
38113;SDS011;23926;53.222;6.354;2024-02-16T10:56:36;46.65;;;43.38;;
38113;SDS011;23926;53.222;6.354;2024-02-16T10:59:03;52.00;;;47.88;;
38113;SDS011;23926;53.222;6.354;2024-02-16T11:01:36;46.15;;;42.28;;
38113;SDS011;23926;53.222;6.354;2024-02-16T11:04:11;51.15;;;46.40;;
38113;SDS011;23926;53.222;6.354;2024-02-16T11:06:49;52.50;;;47.85;;
38113;SDS011;23926;53.222;6.354;2024-02-16T11:09:34;55.90;;;50.95;;
38113;SDS011;23926;53.222;6.354;2024-02-16T11:12:01;73.30;;;66.35;;
38113;SDS011;23926;53.222;6.354;2024-02-16T11:14:34;75.22;;;68.45;;
38113;SDS011;23926;53.222;6.354;2024-02-16T11:17:10;106.80;;;96.85;;
38113;SDS011;23926;53.222;6.354;2024-02-16T11:19:36;107.80;;;97.45;;
38113;SDS011;23926;53.222;6.354;2024-02-16T11:22:03;113.50;;;103.03;;
38113;SDS011;23926;53.222;6.354;2024-02-16T11:27:02;117.38;;;106.88;;
38113;SDS011;23926;53.222;6.354;2024-02-16T11:29:31;129.93;;;118.45;;
38113;SDS011;23926;53.222;6.354;2024-02-16T11:31:59;145.80;;;130.80;;
38113;SDS011;23926;53.222;6.354;2024-02-16T11:34:26;135.48;;;121.15;;
38113;SDS011;23926;53.222;6.354;2024-02-16T11:36:53;141.63;;;127.53;;
38113;SDS011;23926;53.222;6.354;2024-02-16T11:39:20;137.38;;;123.03;;
38113;SDS011;23926;53.222;6.354;2024-02-16T11:41:46;142.93;;;128.57;;
38113;SDS011;23926;53.222;6.354;2024-02-16T11:44:12;139.68;;;126.18;;
38113;SDS011;23926;53.222;6.354;2024-02-16T11:46:41;125.97;;;114.10;;
38113;SDS011;23926;53.222;6.354;2024-02-16T11:49:07;127.57;;;114.47;;
38113;SDS011;23926;53.222;6.354;2024-02-16T11:51:33;131.48;;;118.50;;
38113;SDS011;23926;53.222;6.354;2024-02-16T11:53:59;129.95;;;117.90;;
38113;SDS011;23926;53.222;6.354;2024-02-16T11:56:24;160.27;;;145.45;;
38113;SDS011;23926;53.222;6.354;2024-02-16T11:58:50;218.93;;;199.02;;
38113;SDS011;23926;53.222;6.354;2024-02-16T12:01:17;408.75;;;374.73;;
38113;SDS011;23926;53.222;6.354;2024-02-16T12:03:42;466.00;;;429.88;;
38113;SDS011;23926;53.222;6.354;2024-02-16T12:06:08;559.08;;;514.72;;
38113;SDS011;23926;53.222;6.354;2024-02-16T12:08:34;550.03;;;505.30;;
38113;SDS011;23926;53.222;6.354;2024-02-16T12:11:00;508.95;;;468.25;;
38113;SDS011;23926;53.222;6.354;2024-02-16T12:13:27;523.33;;;481.60;;
38113;SDS011;23926;53.222;6.354;2024-02-16T12:15:52;489.33;;;448.92;;
38113;SDS011;23926;53.222;6.354;2024-02-16T12:18:27;534.05;;;489.63;;
38113;SDS011;23926;53.222;6.354;2024-02-16T12:23:23;506.70;;;460.75;;
38113;SDS011;23926;53.222;6.354;2024-02-16T12:25:48;520.35;;;473.67;;
38113;SDS011;23926;53.222;6.354;2024-02-16T12:28:14;477.50;;;434.38;;
38113;SDS011;23926;53.222;6.354;2024-02-16T12:30:39;487.30;;;446.15;;
38113;SDS011;23926;53.222;6.354;2024-02-16T12:33:05;453.20;;;414.33;;
38113;SDS011;23926;53.222;6.354;2024-02-16T12:35:30;481.65;;;439.73;;
38113;SDS011;23926;53.222;6.354;2024-02-16T12:37:56;445.95;;;407.27;;
38113;SDS011;23926;53.222;6.354;2024-02-16T12:40:21;465.58;;;422.50;;
38113;SDS011;23926;53.222;6.354;2024-02-16T12:42:47;464.00;;;425.30;;
38113;SDS011;23926;53.222;6.354;2024-02-16T12:45:13;464.63;;;427.98;;
38113;SDS011;23926;53.222;6.354;2024-02-16T12:47:38;458.45;;;420.45;;
38113;SDS011;23926;53.222;6.354;2024-02-16T12:50:04;432.08;;;396.08;;
38113;SDS011;23926;53.222;6.354;2024-02-16T12:52:29;423.95;;;390.23;;
38113;SDS011;23926;53.222;6.354;2024-02-16T12:54:56;397.98;;;365.80;;
38113;SDS011;23926;53.222;6.354;2024-02-16T12:57:23;405.42;;;372.15;;
38113;SDS011;23926;53.222;6.354;2024-02-16T12:59:49;401.80;;;369.27;;
38113;SDS011;23926;53.222;6.354;2024-02-16T13:02:14;393.70;;;362.45;;
38113;SDS011;23926;53.222;6.354;2024-02-16T13:04:40;410.73;;;377.92;;
38113;SDS011;23926;53.222;6.354;2024-02-16T13:07:05;398.63;;;366.95;;
38113;SDS011;23926;53.222;6.354;2024-02-16T13:09:30;376.17;;;344.95;;
38113;SDS011;23926;53.222;6.354;2024-02-16T13:11:56;384.90;;;352.30;;
38113;SDS011;23926;53.222;6.354;2024-02-16T13:14:22;350.92;;;321.25;;
38113;SDS011;23926;53.222;6.354;2024-02-16T13:16:47;343.17;;;315.08;;
38113;SDS011;23926;53.222;6.354;2024-02-16T13:19:13;293.77;;;269.13;;
38113;SDS011;23926;53.222;6.354;2024-02-16T13:21:38;289.48;;;266.58;;
38113;SDS011;23926;53.222;6.354;2024-02-16T13:24:04;251.05;;;229.93;;
38113;SDS011;23926;53.222;6.354;2024-02-16T13:26:31;253.13;;;232.50;;
38113;SDS011;23926;53.222;6.354;2024-02-16T13:28:56;229.32;;;208.70;;
38113;SDS011;23926;53.222;6.354;2024-02-16T13:31:22;225.93;;;204.15;;
38113;SDS011;23926;53.222;6.354;2024-02-16T13:33:48;195.88;;;177.40;;
38113;SDS011;23926;53.222;6.354;2024-02-16T13:36:14;194.93;;;175.93;;
38113;SDS011;23926;53.222;6.354;2024-02-16T13:38:39;176.10;;;158.38;;
38113;SDS011;23926;53.222;6.354;2024-02-16T13:41:04;197.57;;;176.88;;
38113;SDS011;23926;53.222;6.354;2024-02-16T13:43:30;171.48;;;154.18;;
38113;SDS011;23926;53.222;6.354;2024-02-16T13:45:56;160.07;;;144.50;;
38113;SDS011;23926;53.222;6.354;2024-02-16T13:48:23;170.95;;;153.52;;
38113;SDS011;23926;53.222;6.354;2024-02-16T13:50:49;158.63;;;142.68;;
38113;SDS011;23926;53.222;6.354;2024-02-16T13:53:15;174.43;;;156.13;;
38113;SDS011;23926;53.222;6.354;2024-02-16T13:55:42;157.50;;;141.52;;
38113;SDS011;23926;53.222;6.354;2024-02-16T13:58:09;148.77;;;136.23;;
38113;SDS011;23926;53.222;6.354;2024-02-16T14:00:35;178.85;;;163.32;;
38113;SDS011;23926;53.222;6.354;2024-02-16T14:03:00;157.55;;;143.68;;
38113;SDS011;23926;53.222;6.354;2024-02-16T14:05:26;150.43;;;137.32;;
38113;SDS011;23926;53.222;6.354;2024-02-16T14:07:51;139.80;;;127.82;;